sensor_id;sensor_type;location;lat;lon;timestamp;pressure;altitude;pressure_sealevel;temperature;humidity
8575;BME280;4325;42.520;27.448;2022-08-30T00:00:06;100882.69;;;23.76;91.29
8575;BME280;4325;42.520;27.448;2022-08-30T00:02:52;100886.22;;;23.73;91.65
8575;BME280;4325;42.520;27.448;2022-08-30T00:05:19;100887.56;;;23.79;90.89
8575;BME280;4325;42.520;27.448;2022-08-30T00:07:46;100890.38;;;23.79;90.20
8575;BME280;4325;42.520;27.448;2022-08-30T00:10:13;100885.41;;;23.72;90.62
8575;BME280;4325;42.520;27.448;2022-08-30T00:12:40;100889.91;;;23.77;90.00
8575;BME280;4325;42.520;27.448;2022-08-30T00:15:09;100893.44;;;23.74;89.78
8575;BME280;4325;42.520;27.448;2022-08-30T00:17:38;100899.00;;;23.74;89.91
8575;BME280;4325;42.520;27.448;2022-08-30T00:20:09;100889.81;;;23.73;89.60
8575;BME280;4325;42.520;27.448;2022-08-30T00:22:37;100889.28;;;23.68;89.10
8575;BME280;4325;42.520;27.448;2022-08-30T00:25:05;100892.56;;;23.57;89.68
8575;BME280;4325;42.520;27.448;2022-08-30T00:27:32;100890.47;;;23.54;87.91
8575;BME280;4325;42.520;27.448;2022-08-30T00:29:59;100881.19;;;23.50;86.18
8575;BME280;4325;42.520;27.448;2022-08-30T00:32:26;100884.22;;;23.45;86.48
8575;BME280;4325;42.520;27.448;2022-08-30T00:34:53;100877.94;;;23.36;86.43
8575;BME280;4325;42.520;27.448;2022-08-30T00:37:22;100887.03;;;23.33;83.94
8575;BME280;4325;42.520;27.448;2022-08-30T00:39:49;100889.63;;;23.26;82.73
8575;BME280;4325;42.520;27.448;2022-08-30T00:42:18;100885.41;;;23.20;83.96
8575;BME280;4325;42.520;27.448;2022-08-30T00:44:46;100884.59;;;23.20;84.55
8575;BME280;4325;42.520;27.448;2022-08-30T00:47:14;100883.81;;;23.19;83.97
8575;BME280;4325;42.520;27.448;2022-08-30T00:49:44;100890.56;;;23.18;81.80
8575;BME280;4325;42.520;27.448;2022-08-30T00:52:12;100892.97;;;23.20;80.88
8575;BME280;4325;42.520;27.448;2022-08-30T00:54:43;100888.91;;;23.17;80.01
8575;BME280;4325;42.520;27.448;2022-08-30T00:57:11;100892.88;;;23.16;79.67
8575;BME280;4325;42.520;27.448;2022-08-30T00:59:40;100890.78;;;23.13;78.37
8575;BME280;4325;42.520;27.448;2022-08-30T01:02:08;100891.50;;;23.10;78.34
8575;BME280;4325;42.520;27.448;2022-08-30T01:04:37;100886.63;;;23.07;78.79
8575;BME280;4325;42.520;27.448;2022-08-30T01:07:05;100887.66;;;23.02;78.54
8575;BME280;4325;42.520;27.448;2022-08-30T01:09:32;100882.91;;;23.03;78.72
8575;BME280;4325;42.520;27.448;2022-08-30T01:12:01;100879.88;;;23.08;79.03
8575;BME280;4325;42.520;27.448;2022-08-30T01:14:29;100888.69;;;23.10;79.19
8575;BME280;4325;42.520;27.448;2022-08-30T01:16:58;100887.19;;;23.13;79.17
8575;BME280;4325;42.520;27.448;2022-08-30T01:19:32;100889.44;;;23.07;79.53
8575;BME280;4325;42.520;27.448;2022-08-30T01:22:05;100885.34;;;23.05;80.96
8575;BME280;4325;42.520;27.448;2022-08-30T01:24:36;100887.78;;;23.06;83.08
8575;BME280;4325;42.520;27.448;2022-08-30T01:27:03;100881.50;;;23.09;84.30
8575;BME280;4325;42.520;27.448;2022-08-30T01:29:30;100881.38;;;23.06;85.20
8575;BME280;4325;42.520;27.448;2022-08-30T01:31:57;100877.31;;;23.03;84.35
8575;BME280;4325;42.520;27.448;2022-08-30T01:34:24;100882.91;;;23.03;83.48
8575;BME280;4325;42.520;27.448;2022-08-30T01:36:51;100875.34;;;23.04;81.99
8575;BME280;4325;42.520;27.448;2022-08-30T01:39:18;100870.00;;;22.98;80.88
8575;BME280;4325;42.520;27.448;2022-08-30T01:41:46;100870.94;;;22.90;81.05
8575;BME280;4325;42.520;27.448;2022-08-30T01:44:14;100872.44;;;22.88;80.64
8575;BME280;4325;42.520;27.448;2022-08-30T01:46:43;100872.94;;;22.90;84.95
8575;BME280;4325;42.520;27.448;2022-08-30T01:49:12;100868.03;;;22.87;82.44
8575;BME280;4325;42.520;27.448;2022-08-30T01:51:39;100873.50;;;22.83;82.50
8575;BME280;4325;42.520;27.448;2022-08-30T01:54:06;100874.69;;;22.82;83.97
8575;BME280;4325;42.520;27.448;2022-08-30T01:56:33;100877.69;;;22.77;84.74
8575;BME280;4325;42.520;27.448;2022-08-30T01:59:03;100873.97;;;22.73;84.21
8575;BME280;4325;42.520;27.448;2022-08-30T02:01:32;100883.16;;;22.74;82.97
8575;BME280;4325;42.520;27.448;2022-08-30T02:04:00;100878.03;;;22.76;82.11
8575;BME280;4325;42.520;27.448;2022-08-30T02:06:27;100877.00;;;22.68;81.58
8575;BME280;4325;42.520;27.448;2022-08-30T02:08:54;100879.22;;;22.63;78.99
8575;BME280;4325;42.520;27.448;2022-08-30T02:11:21;100877.44;;;22.58;77.26
8575;BME280;4325;42.520;27.448;2022-08-30T02:13:48;100878.22;;;22.47;78.39
8575;BME280;4325;42.520;27.448;2022-08-30T02:16:19;100872.78;;;22.38;78.06
8575;BME280;4325;42.520;27.448;2022-08-30T02:18:48;100878.22;;;22.34;78.46
8575;BME280;4325;42.520;27.448;2022-08-30T02:21:15;100884.16;;;22.33;76.45
8575;BME280;4325;42.520;27.448;2022-08-30T02:23:42;100883.81;;;22.34;77.06
8575;BME280;4325;42.520;27.448;2022-08-30T02:26:09;100890.34;;;22.39;73.92
8575;BME280;4325;42.520;27.448;2022-08-30T02:28:36;100893.59;;;22.41;73.40
8575;BME280;4325;42.520;27.448;2022-08-30T02:31:03;100887.78;;;22.33;73.86
8575;BME280;4325;42.520;27.448;2022-08-30T02:33:32;100896.47;;;22.32;74.80
8575;BME280;4325;42.520;27.448;2022-08-30T02:35:59;100897.97;;;22.29;74.22
8575;BME280;4325;42.520;27.448;2022-08-30T02:38:25;100897.03;;;22.25;74.43
8575;BME280;4325;42.520;27.448;2022-08-30T02:40:52;100899.25;;;22.20;75.80
8575;BME280;4325;42.520;27.448;2022-08-30T02:43:19;100896.91;;;22.22;74.80
8575;BME280;4325;42.520;27.448;2022-08-30T02:45:46;100896.69;;;22.27;74.03
8575;BME280;4325;42.520;27.448;2022-08-30T02:48:13;100897.97;;;22.29;74.78
8575;BME280;4325;42.520;27.448;2022-08-30T02:50:43;100900.31;;;22.27;74.19
8575;BME280;4325;42.520;27.448;2022-08-30T02:53:11;100897.72;;;22.22;75.82
8575;BME280;4325;42.520;27.448;2022-08-30T02:55:38;100907.13;;;22.18;76.18
8575;BME280;4325;42.520;27.448;2022-08-30T02:58:06;100910.41;;;22.20;74.24
8575;BME280;4325;42.520;27.448;2022-08-30T03:00:34;100907.38;;;22.25;72.71
8575;BME280;4325;42.520;27.448;2022-08-30T03:03:00;100905.78;;;22.24;72.71
8575;BME280;4325;42.520;27.448;2022-08-30T03:05:28;100912.38;;;22.19;72.77
8575;BME280;4325;42.520;27.448;2022-08-30T03:07:57;100901.53;;;22.06;74.56
8575;BME280;4325;42.520;27.448;2022-08-30T03:10:24;100906.66;;;22.04;75.83
8575;BME280;4325;42.520;27.448;2022-08-30T03:12:52;100914.66;;;22.05;75.69
8575;BME280;4325;42.520;27.448;2022-08-30T03:15:19;100912.34;;;22.07;76.07
8575;BME280;4325;42.520;27.448;2022-08-30T03:17:50;100890.50;;;21.97;76.46
8575;BME280;4325;42.520;27.448;2022-08-30T03:20:17;100912.56;;;22.02;77.56
8575;BME280;4325;42.520;27.448;2022-08-30T03:22:44;100909.66;;;21.99;78.65
8575;BME280;4325;42.520;27.448;2022-08-30T03:25:13;100915.09;;;21.95;79.31
8575;BME280;4325;42.520;27.448;2022-08-30T03:27:40;100913.72;;;22.01;79.27
8575;BME280;4325;42.520;27.448;2022-08-30T03:30:09;100918.63;;;22.04;79.11
8575;BME280;4325;42.520;27.448;2022-08-30T03:32:36;100918.63;;;22.04;80.76
8575;BME280;4325;42.520;27.448;2022-08-30T03:35:04;100913.94;;;21.96;81.94
8575;BME280;4325;42.520;27.448;2022-08-30T03:37:31;100913.72;;;22.01;83.30
8575;BME280;4325;42.520;27.448;2022-08-30T03:39:59;100918.63;;;22.04;83.55
8575;BME280;4325;42.520;27.448;2022-08-30T03:42:28;100923.84;;;22.06;84.68
8575;BME280;4325;42.520;27.448;2022-08-30T03:44:55;100919.56;;;22.08;84.06
8575;BME280;4325;42.520;27.448;2022-08-30T03:47:22;100927.44;;;22.06;84.49
8575;BME280;4325;42.520;27.448;2022-08-30T03:49:49;100928.59;;;22.05;83.40
8575;BME280;4325;42.520;27.448;2022-08-30T03:52:16;100933.72;;;22.03;83.16
8575;BME280;4325;42.520;27.448;2022-08-30T03:54:43;100941.59;;;22.01;83.41
8575;BME280;4325;42.520;27.448;2022-08-30T03:57:10;100947.19;;;22.01;82.88
8575;BME280;4325;42.520;27.448;2022-08-30T03:59:38;100946.97;;;22.06;80.33
8575;BME280;4325;42.520;27.448;2022-08-30T04:02:05;100939.44;;;22.07;81.35
8575;BME280;4325;42.520;27.448;2022-08-30T04:04:32;100942.13;;;22.15;81.54
8575;BME280;4325;42.520;27.448;2022-08-30T04:06:59;100945.38;;;22.17;85.03
8575;BME280;4325;42.520;27.448;2022-08-30T04:09:25;100950.94;;;22.17;84.63
8575;BME280;4325;42.520;27.448;2022-08-30T04:11:52;100948.66;;;22.19;83.55
8575;BME280;4325;42.520;27.448;2022-08-30T04:14:19;100947.13;;;22.22;82.96
8575;BME280;4325;42.520;27.448;2022-08-30T04:16:49;100950.25;;;22.20;82.80
8575;BME280;4325;42.520;27.448;2022-08-30T04:19:16;100950.94;;;22.17;82.56
8575;BME280;4325;42.520;27.448;2022-08-30T04:21:43;100947.00;;;22.18;81.52
8575;BME280;4325;42.520;27.448;2022-08-30T04:24:10;100954.91;;;22.16;82.26
8575;BME280;4325;42.520;27.448;2022-08-30T04:26:37;100957.81;;;22.20;81.33
8575;BME280;4325;42.520;27.448;2022-08-30T04:29:05;100967.38;;;22.31;77.32
8575;BME280;4325;42.520;27.448;2022-08-30T04:31:32;100963.66;;;22.39;76.07
8575;BME280;4325;42.520;27.448;2022-08-30T04:34:00;100964.72;;;22.47;73.14
8575;BME280;4325;42.520;27.448;2022-08-30T04:36:27;100962.91;;;22.51;73.36
8575;BME280;4325;42.520;27.448;2022-08-30T04:38:54;100956.75;;;22.57;72.36
8575;BME280;4325;42.520;27.448;2022-08-30T04:41:21;100955.13;;;22.68;72.92
8575;BME280;4325;42.520;27.448;2022-08-30T04:43:48;100957.84;;;22.77;73.54
8575;BME280;4325;42.520;27.448;2022-08-30T04:46:16;100962.16;;;22.86;73.41
8575;BME280;4325;42.520;27.448;2022-08-30T04:48:43;100960.88;;;22.96;73.27
8575;BME280;4325;42.520;27.448;2022-08-30T04:51:13;100966.69;;;23.03;73.83
8575;BME280;4325;42.520;27.448;2022-08-30T04:53:41;100963.66;;;23.08;71.72
8575;BME280;4325;42.520;27.448;2022-08-30T04:56:10;100963.19;;;23.18;70.93
8575;BME280;4325;42.520;27.448;2022-08-30T04:58:40;100971.34;;;23.23;69.19
8575;BME280;4325;42.520;27.448;2022-08-30T05:01:11;100974.34;;;23.30;68.26
8575;BME280;4325;42.520;27.448;2022-08-30T05:03:38;100984.81;;;23.33;68.82
8575;BME280;4325;42.520;27.448;2022-08-30T05:06:06;100978.78;;;23.31;68.07
8575;BME280;4325;42.520;27.448;2022-08-30T05:08:34;100979.03;;;23.26;68.12
8575;BME280;4325;42.520;27.448;2022-08-30T05:11:03;100972.72;;;23.29;68.95
8575;BME280;4325;42.520;27.448;2022-08-30T05:13:32;100971.69;;;23.34;69.87
8575;BME280;4325;42.520;27.448;2022-08-30T05:15:59;100976.25;;;23.38;70.80
8575;BME280;4325;42.520;27.448;2022-08-30T05:18:26;100975.28;;;23.46;70.65
8575;BME280;4325;42.520;27.448;2022-08-30T05:21:02;100975.59;;;23.57;69.72
8575;BME280;4325;42.520;27.448;2022-08-30T05:23:29;100980.59;;;23.63;69.87
8575;BME280;4325;42.520;27.448;2022-08-30T05:25:58;100975.31;;;23.74;69.57
8575;BME280;4325;42.520;27.448;2022-08-30T05:28:25;100986.84;;;23.85;68.85
8575;BME280;4325;42.520;27.448;2022-08-30T05:30:52;100973.50;;;23.94;68.30
8575;BME280;4325;42.520;27.448;2022-08-30T05:33:19;100981.84;;;24.06;67.92
8575;BME280;4325;42.520;27.448;2022-08-30T05:35:46;100974.84;;;24.12;67.47
8575;BME280;4325;42.520;27.448;2022-08-30T05:38:13;100976.88;;;24.27;67.46
8575;BME280;4325;42.520;27.448;2022-08-30T05:40:40;100975.66;;;24.40;67.19
8575;BME280;4325;42.520;27.448;2022-08-30T05:43:09;100987.59;;;24.53;66.20
8575;BME280;4325;42.520;27.448;2022-08-30T05:45:38;100988.31;;;24.65;65.29
8575;BME280;4325;42.520;27.448;2022-08-30T05:48:05;100996.69;;;24.77;64.04
8575;BME280;4325;42.520;27.448;2022-08-30T05:50:32;100993.03;;;24.92;62.70
8575;BME280;4325;42.520;27.448;2022-08-30T05:52:59;100995.03;;;25.08;62.45
8575;BME280;4325;42.520;27.448;2022-08-30T05:55:26;100994.47;;;25.18;60.19
8575;BME280;4325;42.520;27.448;2022-08-30T05:57:53;100988.75;;;25.30;60.41
8575;BME280;4325;42.520;27.448;2022-08-30T06:00:21;100992.53;;;25.37;59.11
8575;BME280;4325;42.520;27.448;2022-08-30T06:02:52;100990.47;;;25.50;58.52
8575;BME280;4325;42.520;27.448;2022-08-30T06:05:19;100987.53;;;25.62;59.79
8575;BME280;4325;42.520;27.448;2022-08-30T06:07:46;100984.59;;;25.74;59.15
8575;BME280;4325;42.520;27.448;2022-08-30T06:10:14;100984.03;;;25.84;59.02
8575;BME280;4325;42.520;27.448;2022-08-30T06:12:40;100987.56;;;26.00;59.30
8575;BME280;4325;42.520;27.448;2022-08-30T06:15:08;100989.41;;;26.12;58.32
8575;BME280;4325;42.520;27.448;2022-08-30T06:17:37;100980.91;;;26.28;58.26
8575;BME280;4325;42.520;27.448;2022-08-30T06:20:05;100993.91;;;26.36;58.52
8575;BME280;4325;42.520;27.448;2022-08-30T06:22:32;100997.44;;;26.52;58.14
8575;BME280;4325;42.520;27.448;2022-08-30T06:24:59;100998.41;;;26.63;58.52
8575;BME280;4325;42.520;27.448;2022-08-30T06:27:26;100995.19;;;26.61;58.39
8575;BME280;4325;42.520;27.448;2022-08-30T06:29:55;100999.94;;;26.57;58.89
8575;BME280;4325;42.520;27.448;2022-08-30T06:32:22;100998.78;;;26.39;59.90
8575;BME280;4325;42.520;27.448;2022-08-30T06:34:50;101000.00;;;26.18;61.22
8575;BME280;4325;42.520;27.448;2022-08-30T06:37:18;101006.16;;;26.08;62.93
8575;BME280;4325;42.520;27.448;2022-08-30T06:39:45;100996.72;;;26.16;62.50
8575;BME280;4325;42.520;27.448;2022-08-30T06:42:12;100997.03;;;26.31;62.74
8575;BME280;4325;42.520;27.448;2022-08-30T06:44:39;100993.59;;;26.41;62.08
8575;BME280;4325;42.520;27.448;2022-08-30T06:47:06;101010.25;;;26.53;61.97
8575;BME280;4325;42.520;27.448;2022-08-30T06:49:33;101009.97;;;26.58;62.10
8575;BME280;4325;42.520;27.448;2022-08-30T06:52:02;101004.16;;;26.70;61.62
8575;BME280;4325;42.520;27.448;2022-08-30T06:54:29;101006.38;;;26.80;61.83
8575;BME280;4325;42.520;27.448;2022-08-30T06:56:55;101007.16;;;26.77;62.80
8575;BME280;4325;42.520;27.448;2022-08-30T06:59:22;101001.03;;;26.75;63.76
8575;BME280;4325;42.520;27.448;2022-08-30T07:01:49;101005.13;;;26.77;64.21
8575;BME280;4325;42.520;27.448;2022-08-30T07:04:16;101001.41;;;26.93;64.79
8575;BME280;4325;42.520;27.448;2022-08-30T07:06:43;101002.88;;;27.09;65.31
8575;BME280;4325;42.520;27.448;2022-08-30T07:09:11;101000.63;;;27.18;62.71
8575;BME280;4325;42.520;27.448;2022-08-30T07:11:38;101001.28;;;27.34;63.61
8575;BME280;4325;42.520;27.448;2022-08-30T07:14:06;101000.66;;;27.44;62.97
8575;BME280;4325;42.520;27.448;2022-08-30T07:16:33;101009.53;;;27.46;61.00
8575;BME280;4325;42.520;27.448;2022-08-30T07:19:00;101007.13;;;27.48;61.08
8575;BME280;4325;42.520;27.448;2022-08-30T07:21:30;101000.00;;;27.55;60.24
8575;BME280;4325;42.520;27.448;2022-08-30T07:23:58;100996.09;;;27.63;60.02
8575;BME280;4325;42.520;27.448;2022-08-30T07:26:32;101002.69;;;27.74;59.13
8575;BME280;4325;42.520;27.448;2022-08-30T07:29:00;100995.16;;;27.81;59.01
8575;BME280;4325;42.520;27.448;2022-08-30T07:31:27;100995.84;;;28.01;58.88
8575;BME280;4325;42.520;27.448;2022-08-30T07:33:54;101003.22;;;28.12;59.48
8575;BME280;4325;42.520;27.448;2022-08-30T07:36:22;101004.13;;;28.20;57.62
8575;BME280;4325;42.520;27.448;2022-08-30T07:38:50;101002.28;;;28.35;58.33
8575;BME280;4325;42.520;27.448;2022-08-30T07:41:20;100997.22;;;28.51;56.17
8575;BME280;4325;42.520;27.448;2022-08-30T07:43:49;101006.78;;;28.79;55.96
8575;BME280;4325;42.520;27.448;2022-08-30T07:46:16;101008.50;;;29.35;53.68
8575;BME280;4325;42.520;27.448;2022-08-30T07:48:43;101009.00;;;30.27;51.01
8575;BME280;4325;42.520;27.448;2022-08-30T07:51:13;100996.25;;;31.24;47.71
8575;BME280;4325;42.520;27.448;2022-08-30T07:53:40;101002.91;;;32.88;44.64
8575;BME280;4325;42.520;27.448;2022-08-30T07:56:07;100998.56;;;34.63;40.89
8575;BME280;4325;42.520;27.448;2022-08-30T07:58:34;101001.66;;;36.07;37.88
8575;BME280;4325;42.520;27.448;2022-08-30T08:01:04;101004.47;;;36.47;36.84
8575;BME280;4325;42.520;27.448;2022-08-30T08:03:32;100998.97;;;36.00;37.88
8575;BME280;4325;42.520;27.448;2022-08-30T08:06:00;101003.78;;;36.59;36.26
8575;BME280;4325;42.520;27.448;2022-08-30T08:08:28;101006.69;;;36.19;37.25
8575;BME280;4325;42.520;27.448;2022-08-30T08:10:55;101002.31;;;36.15;37.51
8575;BME280;4325;42.520;27.448;2022-08-30T08:13:22;101000.69;;;35.74;38.31
8575;BME280;4325;42.520;27.448;2022-08-30T08:15:49;101009.81;;;35.66;38.50
8575;BME280;4325;42.520;27.448;2022-08-30T08:18:17;101000.78;;;36.10;37.41
8575;BME280;4325;42.520;27.448;2022-08-30T08:20:44;101002.56;;;36.60;36.18
8575;BME280;4325;42.520;27.448;2022-08-30T08:23:11;101004.47;;;36.47;36.41
8575;BME280;4325;42.520;27.448;2022-08-30T08:25:39;100999.53;;;36.83;35.86
8575;BME280;4325;42.520;27.448;2022-08-30T08:28:06;101001.41;;;38.78;33.98
8575;BME280;4325;42.520;27.448;2022-08-30T08:30:34;100999.31;;;39.04;32.63
8575;BME280;4325;42.520;27.448;2022-08-30T08:33:03;100987.78;;;39.76;31.47
8575;BME280;4325;42.520;27.448;2022-08-30T08:35:32;101001.19;;;39.44;31.96
8575;BME280;4325;42.520;27.448;2022-08-30T08:37:59;101000.06;;;41.30;30.47
8575;BME280;4325;42.520;27.448;2022-08-30T08:40:26;100994.44;;;41.17;30.55
8575;BME280;4325;42.520;27.448;2022-08-30T08:43:00;101000.66;;;42.34;28.69
8575;BME280;4325;42.520;27.448;2022-08-30T08:45:45;100999.00;;;44.17;26.31
8575;BME280;4325;42.520;27.448;2022-08-30T08:48:25;101006.28;;;44.41;25.76
8575;BME280;4325;42.520;27.448;2022-08-30T08:50:56;101008.66;;;44.43;26.02
8575;BME280;4325;42.520;27.448;2022-08-30T08:53:44;101003.69;;;43.14;27.72
8575;BME280;4325;42.520;27.448;2022-08-30T08:56:15;101000.44;;;42.55;28.92
8575;BME280;4325;42.520;27.448;2022-08-30T08:58:44;100992.03;;;42.76;29.75
8575;BME280;4325;42.520;27.448;2022-08-30T09:01:13;100994.25;;;42.81;29.36
8575;BME280;4325;42.520;27.448;2022-08-30T09:03:42;100990.63;;;43.51;28.74
8575;BME280;4325;42.520;27.448;2022-08-30T09:06:23;100995.88;;;44.06;28.08
8575;BME280;4325;42.520;27.448;2022-08-30T09:08:53;100988.66;;;42.77;29.21
8575;BME280;4325;42.520;27.448;2022-08-30T09:11:22;100989.38;;;42.03;30.45
8575;BME280;4325;42.520;27.448;2022-08-30T09:13:51;100993.72;;;42.58;29.68
8575;BME280;4325;42.520;27.448;2022-08-30T09:16:50;100992.09;;;43.85;28.17
8575;BME280;4325;42.520;27.448;2022-08-30T09:19:42;100986.44;;;43.90;28.66
8575;BME280;4325;42.520;27.448;2022-08-30T09:22:23;100985.31;;;43.73;29.37
8575;BME280;4325;42.520;27.448;2022-08-30T09:24:54;100985.13;;;43.91;29.22
8575;BME280;4325;42.520;27.448;2022-08-30T09:27:27;100993.72;;;43.62;29.43
8575;BME280;4325;42.520;27.448;2022-08-30T09:30:01;100977.56;;;41.83;32.05
8575;BME280;4325;42.520;27.448;2022-08-30T09:32:31;100974.00;;;42.15;31.45
8575;BME280;4325;42.520;27.448;2022-08-30T09:34:59;100982.16;;;43.24;30.58
8575;BME280;4325;42.520;27.448;2022-08-30T09:37:35;100984.44;;;43.20;29.86
8575;BME280;4325;42.520;27.448;2022-08-30T09:40:12;100978.31;;;43.65;28.67
8575;BME280;4325;42.520;27.448;2022-08-30T09:42:40;100977.31;;;43.30;29.09
8575;BME280;4325;42.520;27.448;2022-08-30T09:45:17;100969.13;;;42.81;30.38
8575;BME280;4325;42.520;27.448;2022-08-30T09:47:45;100968.97;;;43.08;28.66
8575;BME280;4325;42.520;27.448;2022-08-30T09:50:13;100967.66;;;44.24;28.20
8575;BME280;4325;42.520;27.448;2022-08-30T09:52:50;100963.69;;;43.30;30.59
8575;BME280;4325;42.520;27.448;2022-08-30T09:55:51;100969.09;;;42.90;30.64
8575;BME280;4325;42.520;27.448;2022-08-30T09:58:32;100956.16;;;41.75;32.44
8575;BME280;4325;42.520;27.448;2022-08-30T10:01:09;100955.34;;;40.71;33.87
8575;BME280;4325;42.520;27.448;2022-08-30T10:03:41;100960.53;;;40.02;35.52
8575;BME280;4325;42.520;27.448;2022-08-30T10:06:17;100952.44;;;39.23;37.95
8575;BME280;4325;42.520;27.448;2022-08-30T10:09:00;100956.22;;;39.20;38.86
8575;BME280;4325;42.520;27.448;2022-08-30T10:11:36;100949.97;;;39.34;37.94
8575;BME280;4325;42.520;27.448;2022-08-30T10:14:28;100953.22;;;41.02;34.31
8575;BME280;4325;42.520;27.448;2022-08-30T10:17:05;100947.72;;;41.71;32.75
8575;BME280;4325;42.520;27.448;2022-08-30T10:19:54;100943.88;;;42.34;31.16
8575;BME280;4325;42.520;27.448;2022-08-30T10:22:27;100961.41;;;43.11;30.62
8575;BME280;4325;42.520;27.448;2022-08-30T10:25:01;100961.41;;;41.94;31.94
8575;BME280;4325;42.520;27.448;2022-08-30T10:27:35;100950.09;;;41.36;30.76
8575;BME280;4325;42.520;27.448;2022-08-30T10:30:07;100943.88;;;40.71;32.51
8575;BME280;4325;42.520;27.448;2022-08-30T10:32:38;100943.69;;;40.35;33.07
8575;BME280;4325;42.520;27.448;2022-08-30T10:35:09;100940.63;;;39.98;34.10
8575;BME280;4325;42.520;27.448;2022-08-30T10:37:40;100942.72;;;39.42;34.53
8575;BME280;4325;42.520;27.448;2022-08-30T10:40:14;100938.69;;;39.18;35.44
8575;BME280;4325;42.520;27.448;2022-08-30T10:43:04;100943.06;;;39.44;35.92
8575;BME280;4325;42.520;27.448;2022-08-30T10:45:36;100936.13;;;39.97;34.93
8575;BME280;4325;42.520;27.448;2022-08-30T10:48:10;100935.56;;;40.02;34.17
8575;BME280;4325;42.520;27.448;2022-08-30T10:50:41;100935.59;;;40.11;34.77
8575;BME280;4325;42.520;27.448;2022-08-30T10:53:12;100922.44;;;40.54;33.18
8575;BME280;4325;42.520;27.448;2022-08-30T10:55:47;100923.19;;;40.14;33.09
8575;BME280;4325;42.520;27.448;2022-08-30T10:58:16;100928.88;;;40.36;32.11
8575;BME280;4325;42.520;27.448;2022-08-30T11:00:52;100930.59;;;41.50;31.47
8575;BME280;4325;42.520;27.448;2022-08-30T11:03:59;100922.47;;;42.68;29.58
8575;BME280;4325;42.520;27.448;2022-08-30T11:06:33;100923.63;;;42.61;28.78
8575;BME280;4325;42.520;27.448;2022-08-30T11:09:18;100926.47;;;43.56;27.15
8575;BME280;4325;42.520;27.448;2022-08-30T11:14:47;100922.84;;;45.84;22.61
8575;BME280;4325;42.520;27.448;2022-08-30T11:17:24;100926.34;;;46.51;23.15
8575;BME280;4325;42.520;27.448;2022-08-30T11:19:53;100917.19;;;46.27;24.00
8575;BME280;4325;42.520;27.448;2022-08-30T11:22:23;100924.28;;;46.26;24.58
8575;BME280;4325;42.520;27.448;2022-08-30T11:25:08;100913.75;;;44.85;23.86
8575;BME280;4325;42.520;27.448;2022-08-30T11:30:51;100906.16;;;41.45;28.81
8575;BME280;4325;42.520;27.448;2022-08-30T11:33:40;100899.53;;;40.32;31.36
8575;BME280;4325;42.520;27.448;2022-08-30T11:36:08;100901.53;;;39.27;33.83
8575;BME280;4325;42.520;27.448;2022-08-30T11:38:57;100899.88;;;40.03;33.04
8575;BME280;4325;42.520;27.448;2022-08-30T11:41:31;100888.50;;;40.61;32.01
8575;BME280;4325;42.520;27.448;2022-08-30T11:44:27;100892.88;;;41.11;32.09
8575;BME280;4325;42.520;27.448;2022-08-30T11:46:58;100892.28;;;40.18;33.63
8575;BME280;4325;42.520;27.448;2022-08-30T11:49:52;100893.44;;;39.13;34.87
8575;BME280;4325;42.520;27.448;2022-08-30T11:52:52;100882.53;;;38.86;35.14
8575;BME280;4325;42.520;27.448;2022-08-30T11:55:38;100878.69;;;39.79;33.53
8575;BME280;4325;42.520;27.448;2022-08-30T11:58:19;100874.81;;;39.73;34.64
8575;BME280;4325;42.520;27.448;2022-08-30T12:01:13;100876.28;;;40.39;32.78
8575;BME280;4325;42.520;27.448;2022-08-30T12:03:42;100881.69;;;41.68;31.08
8575;BME280;4325;42.520;27.448;2022-08-30T12:06:10;100881.38;;;41.84;31.04
8575;BME280;4325;42.520;27.448;2022-08-30T12:08:47;100882.00;;;41.88;31.28
8575;BME280;4325;42.520;27.448;2022-08-30T12:11:52;100880.03;;;42.03;31.81
8575;BME280;4325;42.520;27.448;2022-08-30T12:14:47;100870.72;;;42.17;30.86
8575;BME280;4325;42.520;27.448;2022-08-30T12:17:47;100878.34;;;42.86;31.17
8575;BME280;4325;42.520;27.448;2022-08-30T12:20:40;100872.81;;;44.52;28.63
8575;BME280;4325;42.520;27.448;2022-08-30T12:23:17;100871.44;;;45.74;27.56
8575;BME280;4325;42.520;27.448;2022-08-30T12:25:45;100883.28;;;45.76;25.83
8575;BME280;4325;42.520;27.448;2022-08-30T12:28:15;100861.53;;;44.05;28.81
8575;BME280;4325;42.520;27.448;2022-08-30T12:30:43;100871.91;;;42.34;31.42
8575;BME280;4325;42.520;27.448;2022-08-30T12:33:12;100866.09;;;41.05;32.65
8575;BME280;4325;42.520;27.448;2022-08-30T12:35:42;100869.38;;;40.76;33.42
8575;BME280;4325;42.520;27.448;2022-08-30T12:38:18;100859.69;;;41.01;34.20
8575;BME280;4325;42.520;27.448;2022-08-30T12:40:51;100867.03;;;40.93;33.76
8575;BME280;4325;42.520;27.448;2022-08-30T12:43:27;100851.69;;;40.87;35.33
8575;BME280;4325;42.520;27.448;2022-08-30T12:45:59;100861.84;;;40.70;34.83
8575;BME280;4325;42.520;27.448;2022-08-30T12:48:28;100857.78;;;41.34;34.88
8575;BME280;4325;42.520;27.448;2022-08-30T12:51:01;100851.72;;;41.05;35.60
8575;BME280;4325;42.520;27.448;2022-08-30T12:53:30;100853.22;;;40.61;36.02
8575;BME280;4325;42.520;27.448;2022-08-30T12:56:00;100834.28;;;39.19;39.35
8575;BME280;4325;42.520;27.448;2022-08-30T12:58:40;100835.56;;;38.83;39.60
8575;BME280;4325;42.520;27.448;2022-08-30T13:01:31;100823.31;;;39.17;39.39
8575;BME280;4325;42.520;27.448;2022-08-30T13:04:09;100822.66;;;39.87;37.31
8575;BME280;4325;42.520;27.448;2022-08-30T13:06:49;100814.03;;;40.76;35.37
8575;BME280;4325;42.520;27.448;2022-08-30T13:09:25;100815.16;;;41.15;35.16
8575;BME280;4325;42.520;27.448;2022-08-30T13:11:53;100818.50;;;41.22;34.65
8575;BME280;4325;42.520;27.448;2022-08-30T13:14:30;100812.22;;;41.69;33.53
8575;BME280;4325;42.520;27.448;2022-08-30T13:17:19;100815.00;;;41.27;33.93
8575;BME280;4325;42.520;27.448;2022-08-30T13:19:56;100816.22;;;40.45;35.43
8575;BME280;4325;42.520;27.448;2022-08-30T13:22:27;100801.47;;;40.25;35.55
8575;BME280;4325;42.520;27.448;2022-08-30T13:24:55;100793.16;;;39.87;36.26